Time;durP1;ratioP1;P1;durP2;ratioP2;P2;SDS_P1;SDS_P2;PMS_P1;PMS_P2;Temp;Humidity;BMP_temperature;BMP_pressure;BME280_temperature;BME280_humidity;BME280_pressure;Samples;Min_cycle;Max_cycle;Signal;HPM_P1;HPM_P2
2021/10/04 00:00:16;;;;;;;1.57;0.50;;;;;;;11.77;72.89;95563.53;5055136;28;20170;-77
2021/10/04 00:02:42;;;;;;;0.57;0.50;;;;;;;11.77;73.13;95573.13;5038084;28;20221;-77
2021/10/04 00:05:08;;;;;;;0.70;0.60;;;;;;;11.76;73.28;95579.31;5054339;28;20544;-77
2021/10/04 00:07:34;;;;;;;0.43;0.43;;;;;;;11.78;73.72;95569.56;5054241;28;20676;-77
2021/10/04 00:10:00;;;;;;;0.60;0.60;;;;;;;11.74;74.26;95568.22;5037760;28;20193;-77
2021/10/04 00:12:25;;;;;;;0.87;0.67;;;;;;;11.73;74.80;95567.41;5054629;28;20184;-77
2021/10/04 00:14:50;;;;;;;0.60;0.60;;;;;;;11.67;74.88;95567.22;5053959;28;20620;-77
2021/10/04 00:17:16;;;;;;;0.40;0.40;;;;;;;11.63;76.07;95572.72;5054475;28;20242;-77
2021/10/04 00:19:41;;;;;;;0.60;0.57;;;;;;;11.56;76.77;95573.47;5037756;28;20307;-77
2021/10/04 00:22:07;;;;;;;0.60;0.60;;;;;;;11.60;77.16;95578.22;5054725;28;20186;-78
2021/10/04 00:24:32;;;;;;;0.57;0.57;;;;;;;11.63;78.10;95582.31;5036829;28;20659;-77
2021/10/04 00:26:57;;;;;;;0.53;0.53;;;;;;;11.60;78.23;95580.84;5038016;28;20682;-77
2021/10/04 00:29:23;;;;;;;0.60;0.50;;;;;;;11.62;79.01;95575.47;5037808;28;20180;-78
2021/10/04 00:31:49;;;;;;;0.50;0.50;;;;;;;11.62;78.76;95578.88;5054732;28;20524;-78
2021/10/04 00:34:14;;;;;;;0.87;0.60;;;;;;;11.64;78.92;95589.94;5038318;28;20181;-78
2021/10/04 00:36:39;;;;;;;0.60;0.60;;;;;;;11.68;78.85;95594.88;5036193;28;20205;-77
2021/10/04 00:39:05;;;;;;;1.00;0.83;;;;;;;11.63;78.29;95590.09;5036096;28;20711;-78
2021/10/04 00:41:31;;;;;;;0.70;0.67;;;;;;;11.60;78.38;95583.44;5035525;28;20655;-78
2021/10/04 00:43:56;;;;;;;0.50;0.50;;;;;;;11.60;78.97;95596.44;5051444;28;20284;-78
2021/10/04 00:46:23;;;;;;;0.60;0.60;;;;;;;11.51;79.12;95589.53;5018726;28;20268;-77
2021/10/04 00:48:49;;;;;;;1.07;0.60;;;;;;;11.49;79.14;95588.88;5051102;28;20180;-77
2021/10/04 00:51:15;;;;;;;1.27;0.70;;;;;;;11.46;79.89;95581.38;5041013;28;20200;-77
2021/10/04 00:53:41;;;;;;;0.80;0.60;;;;;;;11.39;80.95;95588.13;5044919;28;20267;-77
2021/10/04 00:56:07;;;;;;;1.10;0.70;;;;;;;11.39;81.62;95589.94;5034313;28;20212;-77
2021/10/04 00:58:32;;;;;;;0.77;0.70;;;;;;;11.33;82.83;95586.97;5034128;28;20201;-78
2021/10/04 01:00:58;;;;;;;2.40;0.70;;;;;;;11.32;83.32;95574.13;5034465;28;20170;-77
2021/10/04 01:03:23;;;;;;;0.60;0.60;;;;;;;11.36;83.59;95570.25;5017943;28;20173;-77
2021/10/04 01:05:48;;;;;;;2.17;0.80;;;;;;;11.37;83.82;95584.88;5034768;28;20174;-78
2021/10/04 01:08:14;;;;;;;0.90;0.70;;;;;;;11.37;84.42;95595.28;5035979;28;20198;-78
2021/10/04 01:10:39;;;;;;;1.60;1.03;;;;;;;11.37;84.72;95587.47;5053946;28;20217;-77
2021/10/04 01:13:04;;;;;;;2.63;0.90;;;;;;;11.39;85.17;95580.34;5035872;28;20192;-78
2021/10/04 01:15:30;;;;;;;1.03;0.70;;;;;;;11.41;85.16;95572.41;5034909;28;20549;-77
2021/10/04 01:17:55;;;;;;;1.03;0.80;;;;;;;11.26;85.25;95574.72;5053418;28;20251;-78
2021/10/04 01:20:24;;;;;;;1.30;0.90;;;;;;;11.27;85.23;95574.56;5038996;28;20205;-78
2021/10/04 01:22:50;;;;;;;0.80;0.77;;;;;;;11.29;85.35;95583.03;5056249;28;20190;-78
2021/10/04 01:25:16;;;;;;;0.63;0.57;;;;;;;11.28;85.50;95588.38;5056960;28;20185;-78
2021/10/04 01:27:42;;;;;;;1.93;0.60;;;;;;;11.33;85.38;95591.38;5038945;28;20201;-78
2021/10/04 01:30:09;;;;;;;2.17;0.80;;;;;;;11.33;85.25;95604.38;5057206;28;20728;-78
2021/10/04 01:32:35;;;;;;;0.63;0.60;;;;;;;11.26;85.34;95592.94;5055594;28;20178;-78
2021/10/04 01:35:00;;;;;;;0.70;0.63;;;;;;;11.19;85.14;95581.50;5053951;28;20170;-79
2021/10/04 01:37:26;;;;;;;0.60;0.53;;;;;;;11.20;85.33;95583.13;5038764;28;20699;-79
2021/10/04 01:39:51;;;;;;;1.17;0.73;;;;;;;11.16;84.93;95589.59;5055567;28;20177;-78
2021/10/04 01:42:17;;;;;;;0.93;0.53;;;;;;;11.10;84.86;95591.00;5055710;28;20299;-79
2021/10/04 01:44:42;;;;;;;0.80;0.67;;;;;;;11.08;85.32;95595.53;5038248;28;20180;-78
2021/10/04 01:47:07;;;;;;;1.17;0.80;;;;;;;11.05;85.21;95603.66;5039115;28;20206;-79
2021/10/04 01:49:33;;;;;;;0.80;0.60;;;;;;;11.02;85.59;95596.13;5038566;28;20236;-79
2021/10/04 01:51:58;;;;;;;1.10;0.60;;;;;;;11.03;85.89;95605.56;5038697;28;20178;-80
2021/10/04 01:54:23;;;;;;;1.17;0.70;;;;;;;11.01;85.28;95597.09;5055907;28;20268;-79
2021/10/04 01:56:49;;;;;;;0.70;0.50;;;;;;;10.99;84.03;95607.66;5056680;28;20243;-79
2021/10/04 01:59:14;;;;;;;0.97;0.87;;;;;;;11.04;83.63;95608.03;5055558;28;20282;-79
2021/10/04 02:01:39;;;;;;;0.60;0.60;;;;;;;11.08;83.28;95605.94;5056781;28;20473;-78
2021/10/04 02:04:05;;;;;;;1.17;0.60;;;;;;;11.07;82.81;95599.94;5038183;28;20181;-78
2021/10/04 02:06:30;;;;;;;0.90;0.60;;;;;;;11.12;83.13;95598.66;5038558;28;20652;-79
2021/10/04 02:08:55;;;;;;;1.90;0.50;;;;;;;11.07;82.65;95601.72;5056930;28;20170;-79
2021/10/04 02:11:21;;;;;;;1.10;0.67;;;;;;;11.10;82.74;95603.19;5038803;28;20205;-79
2021/10/04 02:13:46;;;;;;;5.83;0.93;;;;;;;11.10;82.76;95596.22;5056112;28;20213;-79
2021/10/04 02:16:12;;;;;;;0.70;0.70;;;;;;;11.10;82.49;95600.59;5038434;28;20604;-80
2021/10/04 02:18:38;;;;;;;1.13;0.60;;;;;;;11.12;82.71;95606.44;5055487;28;20281;-79
2021/10/04 02:21:03;;;;;;;1.17;0.73;;;;;;;11.11;82.82;95602.22;5039149;28;20206;-79
2021/10/04 02:23:28;;;;;;;0.50;0.50;;;;;;;11.10;83.25;95605.78;5038735;28;20622;-80
2021/10/04 02:25:54;;;;;;;0.53;0.53;;;;;;;11.00;82.46;95595.47;5038359;28;20189;-79
2021/10/04 02:28:20;;;;;;;0.57;0.57;;;;;;;10.80;83.50;95586.19;5038884;28;20202;-79
2021/10/04 02:30:46;;;;;;;1.03;0.50;;;;;;;10.88;82.90;95592.28;5054662;28;20269;-79
2021/10/04 02:33:12;;;;;;;0.70;0.70;;;;;;;10.93;83.02;95590.03;5072271;28;20186;-79
2021/10/04 02:35:37;;;;;;;1.00;0.60;;;;;;;10.90;83.25;95589.53;5054135;28;20638;-78
2021/10/04 02:38:03;;;;;;;1.07;0.77;;;;;;;10.78;83.65;95589.75;5022463;28;20206;-79
2021/10/04 02:40:29;;;;;;;0.80;0.60;;;;;;;10.91;83.71;95597.19;5054806;28;20210;-80
2021/10/04 02:42:54;;;;;;;0.80;0.73;;;;;;;10.93;84.19;95587.44;5055370;28;20201;-79
2021/10/04 02:45:21;;;;;;;0.43;0.43;;;;;;;11.01;83.84;95589.31;5038137;28;20188;-78
2021/10/04 02:47:49;;;;;;;0.60;0.60;;;;;;;10.89;84.74;95587.91;5054435;28;20666;-80
2021/10/04 02:50:18;;;;;;;0.80;0.60;;;;;;;10.87;84.95;95589.84;5055810;28;20197;-79
2021/10/04 02:52:43;;;;;;;0.67;0.67;;;;;;;10.83;85.66;95585.91;5059801;28;20190;-78
2021/10/04 02:55:09;;;;;;;1.10;0.83;;;;;;;10.75;86.23;95579.66;5042091;28;20189;-80
2021/10/04 02:57:34;;;;;;;0.77;0.60;;;;;;;10.78;86.88;95568.16;5022309;28;20210;-79
2021/10/04 03:00:00;;;;;;;0.73;0.60;;;;;;;10.75;86.53;95571.03;5057747;28;20257;-79
2021/10/04 03:02:25;;;;;;;4.40;0.80;;;;;;;10.70;86.30;95571.50;5053707;28;20186;-79
2021/10/04 03:04:51;;;;;;;1.00;0.70;;;;;;;10.73;86.07;95570.38;5052984;28;20181;-79
2021/10/04 03:07:16;;;;;;;1.00;0.70;;;;;;;10.65;86.37;95591.06;5036680;28;20297;-80
2021/10/04 03:09:41;;;;;;;2.00;0.70;;;;;;;10.69;86.26;95592.41;5035454;28;20201;-79
2021/10/04 03:12:07;;;;;;;0.63;0.60;;;;;;;10.56;86.46;95592.78;5052426;28;20186;-79
2021/10/04 03:14:33;;;;;;;1.63;0.60;;;;;;;10.56;86.87;95597.97;5051443;28;20694;-79
2021/10/04 03:16:59;;;;;;;0.70;0.67;;;;;;;10.64;86.98;95594.63;5035989;28;20189;-79
2021/10/04 03:19:24;;;;;;;0.60;0.60;;;;;;;10.62;87.12;95594.78;5036493;28;20192;-79
2021/10/04 03:21:49;;;;;;;2.20;0.50;;;;;;;10.63;87.31;95593.00;5036513;28;20193;-79
2021/10/04 03:24:15;;;;;;;0.70;0.53;;;;;;;10.66;87.91;95605.69;5019229;28;20668;-79
2021/10/04 03:26:41;;;;;;;1.33;0.70;;;;;;;10.60;87.23;95606.25;5036542;28;20574;-80
2021/10/04 03:29:07;;;;;;;0.70;0.70;;;;;;;10.66;87.77;95613.47;5053318;28;20182;-79
2021/10/04 03:31:32;;;;;;;0.87;0.87;;;;;;;10.70;87.70;95620.84;5069992;28;20210;-79
2021/10/04 03:33:57;;;;;;;2.63;0.60;;;;;;;10.69;87.65;95616.63;5052511;28;20265;-78
2021/10/04 03:36:23;;;;;;;0.60;0.60;;;;;;;10.71;87.85;95626.84;5052758;28;20595;-79
2021/10/04 03:38:48;;;;;;;0.53;0.53;;;;;;;10.71;87.54;95632.88;5036649;28;20208;-79
2021/10/04 03:41:14;;;;;;;1.93;0.70;;;;;;;10.71;88.02;95629.47;5035975;28;20173;-79
2021/10/04 03:43:39;;;;;;;0.97;0.77;;;;;;;10.74;88.07;95621.38;5035934;28;20257;-79
2021/10/04 03:46:04;;;;;;;0.80;0.80;;;;;;;10.74;88.20;95627.38;5020165;28;20291;-79
2021/10/04 03:48:30;;;;;;;1.13;0.93;;;;;;;10.76;88.34;95614.22;5019819;28;20657;-80
2021/10/04 03:50:56;;;;;;;0.80;0.80;;;;;;;10.78;88.21;95617.53;5054165;28;20205;-79
2021/10/04 03:53:21;;;;;;;0.70;0.70;;;;;;;10.82;88.46;95629.25;5036093;28;20544;-79
2021/10/04 03:55:47;;;;;;;1.93;1.00;;;;;;;10.79;88.44;95626.94;5035282;28;20186;-80
2021/10/04 03:58:12;;;;;;;1.00;0.90;;;;;;;10.75;88.95;95625.59;5054311;28;20190;-79
2021/10/04 04:00:38;;;;;;;1.10;1.00;;;;;;;10.67;89.27;95625.50;5036188;28;20613;-79
2021/10/04 04:03:04;;;;;;;1.13;1.03;;;;;;;10.65;89.08;95625.66;5036096;28;20638;-80
2021/10/04 04:05:30;;;;;;;1.17;1.00;;;;;;;10.62;89.34;95625.13;5051860;28;20200;-79
2021/10/04 04:07:55;;;;;;;1.50;0.90;;;;;;;10.74;88.29;95611.78;5036017;28;20197;-78
2021/10/04 04:10:20;;;;;;;1.07;0.97;;;;;;;10.66;88.38;95603.91;5035570;28;20190;-79
2021/10/04 04:12:46;;;;;;;1.10;0.90;;;;;;;10.61;88.49;95615.72;5035341;28;20641;-79
2021/10/04 04:15:12;;;;;;;1.37;0.80;;;;;;;10.59;88.40;95620.22;5034867;28;20181;-79
2021/10/04 04:17:38;;;;;;;0.70;0.70;;;;;;;10.57;88.82;95627.34;5053544;28;20229;-79
2021/10/04 04:20:04;;;;;;;1.23;0.90;;;;;;;10.65;88.93;95632.63;5052242;28;20166;-79
2021/10/04 04:22:30;;;;;;;0.83;0.73;;;;;;;10.63;88.77;95640.56;5050958;28;20189;-79
2021/10/04 04:24:56;;;;;;;1.17;1.07;;;;;;;10.62;88.76;95636.34;5051663;28;20706;-79
2021/10/04 04:27:23;;;;;;;1.33;1.00;;;;;;;10.57;88.91;95637.72;5018794;28;20205;-80
2021/10/04 04:29:48;;;;;;;2.40;1.20;;;;;;;10.53;89.37;95639.00;5052452;28;20193;-78
2021/10/04 04:32:13;;;;;;;1.60;1.30;;;;;;;10.56;89.28;95643.88;5052391;28;20247;-79
2021/10/04 04:34:39;;;;;;;1.30;1.20;;;;;;;10.62;89.05;95645.91;5034885;28;20227;-79
2021/10/04 04:37:05;;;;;;;2.27;1.40;;;;;;;10.52;89.24;95645.16;5035073;28;20193;-79
2021/10/04 04:39:32;;;;;;;1.90;1.20;;;;;;;10.52;89.53;95658.13;5052238;28;20182;-77
2021/10/04 04:41:57;;;;;;;1.67;1.57;;;;;;;10.46;90.39;95657.75;5070547;28;20665;-79
2021/10/04 04:44:23;;;;;;;2.73;1.40;;;;;;;10.44;90.92;95661.44;5053387;28;20212;-79
2021/10/04 04:46:49;;;;;;;1.20;1.10;;;;;;;10.51;91.12;95654.69;5074660;28;20188;-78
2021/10/04 04:49:15;;;;;;;2.00;1.33;;;;;;;10.54;91.05;95669.19;5058486;28;20184;-78
2021/10/04 04:51:41;;;;;;;2.90;1.37;;;;;;;10.61;90.72;95680.63;5076982;28;20208;-78
2021/10/04 04:54:06;;;;;;;2.63;1.73;;;;;;;10.63;90.55;95683.91;5063614;28;20260;-78
2021/10/04 04:56:31;;;;;;;2.30;2.10;;;;;;;10.58;90.62;95678.31;5064169;28;20176;-78
2021/10/04 04:58:57;;;;;;;2.10;1.60;;;;;;;10.58;90.62;95678.31;5080535;28;20550;-78
2021/10/04 05:01:22;;;;;;;2.47;2.27;;;;;;;10.57;90.97;95689.66;5064203;28;20180;-78
2021/10/04 05:03:47;;;;;;;4.07;3.73;;;;;;;10.61;91.55;95694.44;5062880;28;20183;-78
2021/10/04 05:06:13;;;;;;;4.30;3.30;;;;;;;10.60;91.11;95702.34;5046808;28;20178;-79
2021/10/04 05:08:38;;;;;;;4.60;3.30;;;;;;;10.60;91.28;95698.00;5061714;28;20212;-78
2021/10/04 05:11:03;;;;;;;3.10;2.80;;;;;;;10.63;91.30;95695.09;5080341;28;20259;-79
2021/10/04 05:13:29;;;;;;;1.97;1.77;;;;;;;10.62;91.52;95696.06;5061004;28;20192;-78
2021/10/04 05:15:54;;;;;;;2.30;1.70;;;;;;;10.64;91.73;95699.34;5044428;28;20220;-79
2021/10/04 05:18:20;;;;;;;1.70;1.60;;;;;;;10.62;91.10;95713.44;5078073;28;20204;-78
2021/10/04 05:20:45;;;;;;;2.93;1.50;;;;;;;10.60;91.42;95720.53;5043949;28;20196;-79
2021/10/04 05:23:10;;;;;;;3.73;1.73;;;;;;;10.59;91.12;95726.69;5060501;28;20184;-78
2021/10/04 05:25:36;;;;;;;2.20;2.00;;;;;;;10.60;91.44;95723.13;5044041;28;20193;-78
2021/10/04 05:28:01;;;;;;;1.33;1.23;;;;;;;10.64;91.10;95724.50;5064943;28;20967;-80
2021/10/04 05:30:26;;;;;;;2.53;1.27;;;;;;;10.65;91.02;95726.13;5075737;28;20685;-79
2021/10/04 05:32:52;;;;;;;1.20;1.10;;;;;;;10.66;90.45;95727.75;5038833;28;20185;-78
2021/10/04 05:35:17;;;;;;;1.83;1.20;;;;;;;10.59;90.53;95724.91;5075116;28;20169;-78
2021/10/04 05:37:44;;;;;;;3.27;2.63;;;;;;;10.58;90.72;95722.47;5041655;28;20205;-78
2021/10/04 05:40:10;;;;;;;3.00;1.83;;;;;;;10.64;90.56;95740.06;5057570;28;20174;-79
2021/10/04 05:42:35;;;;;;;2.50;1.70;;;;;;;10.60;90.80;95731.75;5059157;28;20227;-78
2021/10/04 05:45:03;;;;;;;1.90;1.50;;;;;;;10.60;91.01;95733.50;5057873;28;20177;-78
2021/10/04 05:47:28;;;;;;;2.20;1.70;;;;;;;10.57;91.56;95736.41;5058698;28;20567;-78
2021/10/04 05:49:54;;;;;;;2.07;1.63;;;;;;;10.58;91.71;95735.44;5042313;28;20185;-78
2021/10/04 05:52:19;;;;;;;2.83;1.80;;;;;;;10.45;91.71;95728.81;5058574;28;20709;-78
2021/10/04 05:54:44;;;;;;;1.90;1.73;;;;;;;10.44;92.13;95731.53;5058064;28;20172;-77
2021/10/04 05:57:10;;;;;;;3.30;3.00;;;;;;;10.45;92.00;95731.41;5050884;28;20258;-79
2021/10/04 05:59:35;;;;;;;2.33;2.10;;;;;;;10.39;91.88;95726.75;5049581;28;20272;-78
2021/10/04 06:02:01;;;;;;;1.97;1.77;;;;;;;10.30;92.11;95722.41;5069232;28;20177;-78
2021/10/04 06:04:26;;;;;;;2.03;1.80;;;;;;;10.19;93.17;95720.78;5041820;28;20274;-79
2021/10/04 06:06:51;;;;;;;1.50;1.40;;;;;;;10.23;92.57;95718.75;5088637;28;20201;-79
2021/10/04 06:09:16;;;;;;;1.67;1.57;;;;;;;10.25;92.98;95729.84;5063599;28;20177;-78
2021/10/04 06:11:42;;;;;;;3.00;2.17;;;;;;;10.25;92.71;95732.44;5028934;28;20568;-79
2021/10/04 06:14:07;;;;;;;2.03;1.90;;;;;;;10.20;93.64;95727.63;5021893;28;20246;-78
2021/10/04 06:16:32;;;;;;;1.20;1.10;;;;;;;10.10;93.28;95737.19;5044057;28;20270;-78
2021/10/04 06:18:58;;;;;;;1.60;1.50;;;;;;;10.07;93.53;95736.66;5043458;28;20178;-78
2021/10/04 06:21:23;;;;;;;1.60;1.47;;;;;;;10.12;93.92;95747.44;5070538;28;20257;-78
2021/10/04 06:23:48;;;;;;;1.53;1.43;;;;;;;10.27;93.40;95753.88;5056241;28;20276;-78
2021/10/04 06:26:14;;;;;;;2.63;1.93;;;;;;;10.26;93.28;95756.59;5053886;28;20189;-78
2021/10/04 06:28:39;;;;;;;2.30;2.10;;;;;;;10.23;93.29;95765.47;5063378;28;20572;-78
2021/10/04 06:31:04;;;;;;;1.77;1.67;;;;;;;10.31;93.36;95765.59;5030459;28;20192;-78
2021/10/04 06:33:30;;;;;;;1.63;1.47;;;;;;;10.30;92.56;95770.91;5058991;28;20186;-78
2021/10/04 06:35:55;;;;;;;1.60;1.50;;;;;;;10.35;92.84;95785.13;5038180;28;20178;-78
2021/10/04 06:38:20;;;;;;;1.93;1.60;;;;;;;10.44;92.96;95783.47;5040623;28;20439;-77
2021/10/04 06:40:46;;;;;;;1.90;1.40;;;;;;;10.45;92.65;95790.28;5058311;28;20173;-77
2021/10/04 06:43:11;;;;;;;1.40;1.30;;;;;;;10.53;92.44;95789.59;5067580;28;20205;-77
2021/10/04 06:45:36;;;;;;;1.60;1.50;;;;;;;10.56;92.08;95794.50;5054583;28;20190;-78
2021/10/04 06:48:02;;;;;;;3.30;1.63;;;;;;;10.53;91.88;95787.81;5057202;28;20213;-78
2021/10/04 06:50:27;;;;;;;2.17;1.53;;;;;;;10.59;91.64;95797.63;5038680;28;20228;-78
2021/10/04 06:52:52;;;;;;;1.77;1.67;;;;;;;10.65;91.92;95801.44;5051282;28;20219;-78
2021/10/04 06:55:18;;;;;;;1.70;1.60;;;;;;;10.58;91.48;95803.78;5071188;28;20545;-77
2021/10/04 06:57:43;;;;;;;1.93;1.70;;;;;;;10.60;91.61;95814.00;5055634;28;20201;-78
2021/10/04 07:00:11;;;;;;;2.27;1.90;;;;;;;10.65;91.59;95809.22;5071862;28;20170;-76
2021/10/04 07:02:37;;;;;;;2.37;2.00;;;;;;;10.67;91.84;95812.50;5071582;28;20541;-76
2021/10/04 07:05:04;;;;;;;1.60;1.50;;;;;;;10.66;91.65;95821.25;5054133;28;20180;-78
2021/10/04 07:07:29;;;;;;;1.70;1.60;;;;;;;10.68;91.53;95837.50;5071440;28;20578;-79
2021/10/04 07:09:54;;;;;;;1.47;1.37;;;;;;;10.73;91.23;95853.50;5071638;28;20185;-77
2021/10/04 07:12:20;;;;;;;1.53;1.40;;;;;;;10.77;91.27;95847.03;5055310;28;20189;-78
2021/10/04 07:14:45;;;;;;;1.53;1.37;;;;;;;10.73;91.02;95845.72;5076911;28;20184;-78
2021/10/04 07:17:10;;;;;;;1.20;1.10;;;;;;;10.80;91.32;95843.38;5079765;28;20193;-78
2021/10/04 07:19:36;;;;;;;1.23;1.00;;;;;;;10.74;90.57;95839.56;5044781;28;20181;-77
2021/10/04 07:22:01;;;;;;;1.17;1.07;;;;;;;10.81;90.38;95840.63;5061729;28;20688;-78
2021/10/04 07:24:27;;;;;;;2.30;0.80;;;;;;;10.69;90.36;95840.00;5061381;28;20177;-78
2021/10/04 07:26:52;;;;;;;0.97;0.90;;;;;;;10.74;90.55;95844.75;5062137;28;20668;-78
2021/10/04 07:29:18;;;;;;;1.20;0.93;;;;;;;10.81;90.53;95851.00;5062612;28;20178;-78
2021/10/04 07:31:44;;;;;;;0.77;0.50;;;;;;;10.74;90.27;95844.75;5080011;28;20189;-78
2021/10/04 07:34:09;;;;;;;1.47;0.90;;;;;;;10.85;90.21;95849.75;5046209;28;20173;-78
2021/10/04 07:36:35;;;;;;;0.90;0.80;;;;;;;10.69;90.05;95858.16;5062909;28;20185;-77
2021/10/04 07:39:02;;;;;;;0.80;0.80;;;;;;;10.86;90.38;95860.97;5082394;28;20189;-79
2021/10/04 07:41:28;;;;;;;0.80;0.77;;;;;;;10.91;90.07;95870.00;5080188;28;20169;-80
2021/10/04 07:43:53;;;;;;;0.80;0.80;;;;;;;11.04;90.09;95875.69;5061761;28;20196;-79
2021/10/04 07:46:18;;;;;;;1.60;1.03;;;;;;;11.09;89.51;95874.44;5062807;28;20201;-78
2021/10/04 07:48:44;;;;;;;1.70;0.70;;;;;;;11.16;89.47;95875.50;5063001;28;20736;-78
2021/10/04 07:51:12;;;;;;;0.90;0.80;;;;;;;11.26;89.12;95873.69;5046611;28;20225;-78
2021/10/04 07:53:39;;;;;;;1.50;1.20;;;;;;;11.16;88.88;95880.72;5077374;28;20256;-77
2021/10/04 07:56:04;;;;;;;1.20;0.97;;;;;;;11.16;89.31;95886.72;5041137;28;20273;-78
2021/10/04 07:58:29;;;;;;;1.10;0.77;;;;;;;11.17;88.31;95897.94;5074221;28;20212;-78
2021/10/04 08:00:55;;;;;;;1.43;1.33;;;;;;;11.09;89.00;95890.03;5056566;28;20174;-78
2021/10/04 08:03:20;;;;;;;2.33;1.60;;;;;;;10.96;88.80;95880.78;5056978;28;20199;-77
2021/10/04 08:05:45;;;;;;;1.60;1.37;;;;;;;11.02;89.62;95890.59;5076634;28;20173;-78
2021/10/04 08:08:10;;;;;;;1.40;1.30;;;;;;;10.96;89.54;95891.19;5042532;28;20769;-77
2021/10/04 08:10:36;;;;;;;1.17;0.90;;;;;;;11.01;89.11;95891.56;5061115;28;20223;-78
2021/10/04 08:13:01;;;;;;;1.07;1.00;;;;;;;11.12;89.56;95884.53;5057522;28;20185;-78
2021/10/04 08:15:27;;;;;;;0.90;0.63;;;;;;;11.17;88.59;95890.16;5032095;28;20178;-78
2021/10/04 08:17:52;;;;;;;0.70;0.70;;;;;;;11.02;89.14;95885.41;5040332;28;20304;-76
2021/10/04 08:20:18;;;;;;;1.60;0.90;;;;;;;11.13;89.68;95886.19;5037113;28;20632;-76
2021/10/04 08:22:43;;;;;;;0.70;0.70;;;;;;;11.17;89.17;95903.16;5039380;28;20182;-79
2021/10/04 08:25:10;;;;;;;0.90;0.70;;;;;;;11.22;89.09;95908.72;5040819;28;20185;-79
2021/10/04 08:27:37;;;;;;;0.40;0.30;;;;;;;11.20;88.63;95914.06;5055383;28;20217;-77
2021/10/04 08:30:03;;;;;;;1.30;0.43;;;;;;;11.17;88.43;95909.16;5038189;28;20229;-79
2021/10/04 08:32:28;;;;;;;0.70;0.60;;;;;;;11.26;88.46;95910.09;5041343;28;20182;-77
2021/10/04 08:34:54;;;;;;;0.87;0.53;;;;;;;11.30;88.88;95914.84;5057103;28;20714;-78
2021/10/04 08:37:19;;;;;;;0.90;0.60;;;;;;;11.31;88.75;95913.91;5074331;28;20201;-77
2021/10/04 08:39:44;;;;;;;0.40;0.40;;;;;;;11.35;88.44;95911.81;5059864;28;20173;-78
2021/10/04 08:42:10;;;;;;;0.77;0.60;;;;;;;11.39;88.29;95918.38;5055945;28;20174;-79
2021/10/04 08:44:36;;;;;;;1.07;0.60;;;;;;;11.41;88.22;95929.47;5060427;28;20187;-78
2021/10/04 08:47:05;;;;;;;0.70;0.70;;;;;;;11.40;88.02;95921.81;5058362;28;20756;-78
2021/10/04 08:49:33;;;;;;;0.90;0.70;;;;;;;11.36;88.01;95921.25;5061539;28;20221;-77
2021/10/04 08:51:59;;;;;;;0.90;0.50;;;;;;;11.36;88.19;95923.88;5058096;28;20243;-77
2021/10/04 08:54:25;;;;;;;0.93;0.40;;;;;;;11.38;87.69;95911.53;5036954;28;20188;-77
2021/10/04 08:56:52;;;;;;;0.50;0.50;;;;;;;11.53;87.89;95925.69;5051646;28;20189;-78
2021/10/04 08:59:18;;;;;;;0.30;0.30;;;;;;;11.54;86.39;95919.53;5056845;28;20197;-77
2021/10/04 09:01:43;;;;;;;0.63;0.40;;;;;;;11.44;85.53;95923.16;5075448;28;20655;-78
2021/10/04 09:04:09;;;;;;;0.30;0.27;;;;;;;11.44;86.36;95921.38;5055057;28;20178;-77
2021/10/04 09:06:39;;;;;;;0.83;0.40;;;;;;;11.64;86.54;95916.88;5036995;28;20200;-77
2021/10/04 09:09:05;;;;;;;1.57;0.50;;;;;;;11.77;86.77;95913.97;5039786;28;20178;-77
2021/10/04 09:11:45;;;;;;;1.03;0.40;;;;;;;11.78;85.69;95919.00;5069852;28;20703;-78
2021/10/04 09:14:12;;;;;;;0.60;0.50;;;;;;;11.68;85.50;95920.84;5055031;28;20177;-78
2021/10/04 09:16:49;;;;;;;0.30;0.30;;;;;;;11.62;84.54;95914.44;5070187;28;20186;-77
2021/10/04 09:19:19;;;;;;;0.30;0.30;;;;;;;11.66;84.32;95908.94;5056619;28;20208;-78
2021/10/04 09:22:06;;;;;;;0.63;0.30;;;;;;;11.66;83.17;95908.94;5048510;28;20180;-77
2021/10/04 09:24:31;;;;;;;1.73;0.40;;;;;;;11.69;83.89;95924.25;5078826;28;20570;-77
2021/10/04 09:26:57;;;;;;;0.63;0.50;;;;;;;11.77;83.09;95925.19;5064161;28;20189;-78
2021/10/04 09:29:24;;;;;;;0.40;0.33;;;;;;;11.82;82.78;95920.38;5061821;28;20264;-80
2021/10/04 09:31:50;;;;;;;0.60;0.43;;;;;;;11.71;82.87;95930.13;5046239;28;20197;-81
2021/10/04 09:34:18;;;;;;;1.33;0.40;;;;;;;11.54;83.57;95931.72;5081181;28;20552;-77
2021/10/04 09:36:52;;;;;;;0.63;0.37;;;;;;;11.72;84.10;95940.41;5064836;28;20197;-78
2021/10/04 09:39:31;;;;;;;0.70;0.33;;;;;;;11.83;83.85;95936.81;5063480;28;20237;-79
2021/10/04 09:42:18;;;;;;;0.70;0.30;;;;;;;11.76;83.38;95938.34;5081373;28;20169;-78
2021/10/04 09:44:54;;;;;;;1.07;0.37;;;;;;;11.61;82.99;95928.41;5065499;28;20178;-78
2021/10/04 09:47:41;;;;;;;0.30;0.30;;;;;;;11.46;81.92;95919.44;5084336;28;20602;-77
2021/10/04 09:50:08;;;;;;;0.30;0.30;;;;;;;11.45;82.84;95917.81;5051418;28;20189;-79
2021/10/04 09:52:52;;;;;;;0.50;0.20;;;;;;;11.47;81.52;95915.88;5066282;28;20181;-78
2021/10/04 09:55:18;;;;;;;0.73;0.50;;;;;;;11.56;82.95;95920.19;5066257;28;20173;-77
2021/10/04 09:57:54;;;;;;;0.93;0.33;;;;;;;11.79;82.62;95914.63;5084111;28;20288;-77
2021/10/04 10:00:19;;;;;;;0.40;0.40;;;;;;;11.76;81.96;95923.53;5080907;28;20185;-78
2021/10/04 10:02:45;;;;;;;2.53;0.43;;;;;;;11.80;83.18;95926.69;5083551;28;20645;-79
2021/10/04 10:05:11;;;;;;;0.20;0.20;;;;;;;11.86;82.89;95920.91;5079992;28;20227;-78
2021/10/04 10:07:36;;;;;;;0.87;0.30;;;;;;;11.93;82.26;95918.53;5081959;28;20227;-77
2021/10/04 10:10:02;;;;;;;0.57;0.30;;;;;;;11.96;81.96;95916.47;5078285;28;20192;-78
2021/10/04 10:12:28;;;;;;;5.93;0.40;;;;;;;11.92;82.89;95915.09;5070392;28;20910;-78
2021/10/04 10:14:53;;;;;;;0.47;0.30;;;;;;;12.09;82.20;95903.06;5045373;28;20189;-79
2021/10/04 10:17:22;;;;;;;0.40;0.40;;;;;;;11.95;81.65;95899.22;5078922;28;20193;-77
2021/10/04 10:19:49;;;;;;;0.40;0.40;;;;;;;11.88;82.08;95892.97;5064015;28;20197;-80
2021/10/04 10:22:16;;;;;;;0.50;0.50;;;;;;;11.83;82.14;95897.78;5027903;28;20174;-76
2021/10/04 10:24:43;;;;;;;1.47;0.50;;;;;;;11.88;82.80;95903.38;5025308;28;20594;-79
2021/10/04 10:27:09;;;;;;;0.60;0.40;;;;;;;11.98;81.88;95918.91;5058602;28;20208;-78
2021/10/04 10:29:35;;;;;;;1.00;0.50;;;;;;;11.90;82.83;95907.44;5065072;28;20177;-79
2021/10/04 10:32:00;;;;;;;1.07;0.50;;;;;;;11.86;82.68;95913.94;5075024;28;20235;-77
2021/10/04 10:34:32;;;;;;;0.43;0.43;;;;;;;12.01;82.46;95916.00;5087325;28;20181;-76
2021/10/04 10:36:57;;;;;;;0.60;0.40;;;;;;;12.05;81.92;95910.38;5075786;28;20195;-77
2021/10/04 10:39:37;;;;;;;1.03;0.50;;;;;;;11.96;82.51;95919.06;5077447;28;20226;-77
2021/10/04 10:42:15;;;;;;;1.07;0.50;;;;;;;11.88;83.62;95912.00;5077200;28;20169;-75
2021/10/04 10:45:09;;;;;;;1.20;0.60;;;;;;;11.93;82.79;95911.56;5072285;28;20177;-76
2021/10/04 10:47:37;;;;;;;2.13;0.60;;;;;;;11.95;82.67;95908.81;5070201;28;20204;-77
2021/10/04 10:50:17;;;;;;;0.90;0.60;;;;;;;12.06;82.00;95908.59;5059126;28;20207;-75
2021/10/04 10:53:01;;;;;;;0.43;0.40;;;;;;;12.00;82.39;95912.59;5052830;28;20173;-76
2021/10/04 10:55:35;;;;;;;4.67;0.60;;;;;;;12.00;82.02;95920.41;5045311;28;20197;-77
2021/10/04 10:58:13;;;;;;;5.10;0.53;;;;;;;12.21;80.61;95901.09;5087120;28;20284;-76
2021/10/04 11:00:45;;;;;;;3.20;0.70;;;;;;;12.29;81.30;95891.56;5040360;28;20181;-76
2021/10/04 11:03:15;;;;;;;1.10;0.80;;;;;;;12.30;81.33;95898.41;5062553;28;20188;-76
2021/10/04 11:05:43;;;;;;;0.63;0.63;;;;;;;12.28;81.85;95894.28;5069620;28;20178;-76
2021/10/04 11:08:10;;;;;;;2.73;0.80;;;;;;;12.27;81.67;95893.47;5048135;28;20231;-76
2021/10/04 11:10:55;;;;;;;1.60;0.60;;;;;;;12.41;81.78;95889.53;5066553;28;20580;-77
2021/10/04 11:13:30;;;;;;;1.57;0.80;;;;;;;12.52;80.65;95889.28;5068073;28;20548;-77
2021/10/04 11:15:57;;;;;;;1.27;0.63;;;;;;;12.57;78.79;95892.28;5061585;28;20186;-77
2021/10/04 11:18:24;;;;;;;2.10;0.43;;;;;;;12.52;78.58;95884.09;5070832;28;20200;-77
2021/10/04 11:21:01;;;;;;;2.43;0.50;;;;;;;12.46;79.28;95882.09;5072107;28;20216;-77
2021/10/04 11:23:26;;;;;;;0.97;0.50;;;;;;;12.45;80.39;95876.06;5034202;28;20185;-77
2021/10/04 11:25:53;;;;;;;1.13;0.70;;;;;;;12.43;80.50;95879.78;5049587;28;20170;-79
2021/10/04 11:28:21;;;;;;;0.40;0.40;;;;;;;12.53;80.62;95887.50;5054204;28;20197;-79
2021/10/04 11:31:01;;;;;;;0.50;0.50;;;;;;;12.36;81.06;95876.13;5048806;28;20571;-79